createdAt,value
2022-11-21T00:10:26.299Z,977.13
2022-11-21T00:25:28.210Z,977.04
2022-11-21T00:40:30.180Z,977.19
2022-11-21T00:55:32.054Z,976.96
2022-11-21T01:10:33.995Z,976.97
2022-11-21T01:25:36.161Z,976.99
2022-11-21T01:40:38.106Z,977.17
2022-11-21T01:55:40.076Z,977.23
2022-11-21T02:10:41.994Z,977.26
2022-11-21T02:25:43.873Z,977.26
2022-11-21T02:40:45.762Z,977.37
2022-11-21T02:55:47.690Z,977.37
2022-11-21T03:10:49.613Z,977.33
2022-11-21T03:25:51.502Z,977.31
2022-11-21T03:40:53.413Z,977.37
2022-11-21T03:55:55.337Z,977.39
2022-11-21T04:10:57.221Z,977.34
2022-11-21T04:25:59.210Z,977.38
2022-11-21T04:41:01.130Z,977.51
2022-11-21T04:56:03.046Z,977.59
2022-11-21T05:11:04.971Z,977.58
2022-11-21T05:26:06.844Z,977.69
2022-11-21T05:41:08.748Z,977.74
2022-11-21T05:56:10.656Z,977.64
2022-11-21T06:11:12.616Z,977.53
2022-11-21T06:26:14.586Z,977.5
2022-11-21T06:41:16.504Z,977.48
2022-11-21T06:56:18.437Z,977.56
2022-11-21T07:11:25.042Z,977.59
2022-11-21T07:26:27.497Z,977.63
2022-11-21T07:41:29.478Z,977.5
2022-11-21T07:56:31.545Z,977.6
2022-11-21T08:11:33.513Z,977.48
2022-11-21T08:26:35.419Z,977.39
2022-11-21T08:41:37.347Z,977.31
2022-11-21T08:56:39.267Z,977.2
2022-11-21T09:11:41.161Z,977.15
2022-11-21T09:26:43.161Z,977.26
2022-11-21T09:41:45.055Z,977.35
2022-11-21T09:56:47.078Z,977.44
2022-11-21T10:11:48.995Z,977.32
2022-11-21T10:26:50.995Z,977.41
2022-11-21T10:41:52.832Z,977.55
2022-11-21T10:56:54.714Z,977.66
2022-11-21T11:11:56.672Z,977.66
2022-11-21T11:26:58.548Z,977.59
2022-11-21T11:42:00.498Z,977.41
2022-11-21T11:57:02.442Z,977.53
2022-11-21T12:12:04.464Z,977.64
2022-11-21T12:27:06.398Z,977.73
2022-11-21T12:42:08.287Z,977.81
2022-11-21T12:57:10.207Z,977.73
2022-11-21T13:12:12.095Z,977.91
2022-11-21T13:27:14.009Z,978.14
2022-11-21T13:42:20.169Z,977.97
2022-11-21T13:57:22.773Z,977.9
2022-11-21T14:12:29.971Z,977.9
2022-11-21T14:27:34.732Z,977.84
2022-11-21T14:42:36.636Z,977.81
2022-11-21T14:57:38.588Z,977.86
2022-11-21T15:12:44.584Z,977.66
2022-11-21T15:27:47.797Z,977.87
2022-11-21T15:42:49.769Z,977.98
2022-11-21T15:57:51.664Z,977.97
2022-11-21T16:12:53.618Z,978.08
2022-11-21T16:27:55.535Z,978.27
2022-11-21T16:42:57.419Z,978.39
2022-11-21T16:57:59.337Z,978.27
2022-11-21T17:13:01.250Z,978.22
2022-11-21T17:28:03.173Z,978.21
2022-11-21T17:43:05.134Z,978.23
2022-11-21T17:58:07.023Z,978.08
2022-11-21T18:13:08.939Z,978.03
2022-11-21T18:28:10.826Z,978.1
2022-11-21T18:43:12.850Z,977.9
2022-11-21T18:58:14.765Z,977.73
2022-11-21T19:13:16.669Z,977.66
2022-11-21T19:28:18.478Z,977.69
2022-11-21T19:43:20.520Z,977.56
2022-11-21T19:58:22.482Z,977.52
2022-11-21T20:13:24.423Z,977.53
2022-11-21T20:28:26.348Z,977.26
2022-11-21T20:43:52.664Z,977.04
2022-11-21T20:59:05.054Z,977.12
2022-11-21T21:14:06.988Z,976.9
2022-11-21T21:29:08.908Z,976.79
2022-11-21T21:44:10.842Z,976.62
2022-11-21T21:59:12.764Z,976.27
2022-11-21T22:14:14.641Z,976.37
2022-11-21T22:29:16.609Z,976.23
2022-11-21T22:44:18.521Z,976.13
2022-11-21T22:59:20.423Z,975.93
2022-11-21T23:14:22.363Z,975.94
2022-11-21T23:29:24.259Z,976.04
2022-11-21T23:44:26.210Z,976.02
2022-11-21T23:59:28.556Z,976.02
